Time;durP1;ratioP1;P1;durP2;ratioP2;P2;SDS_P1;SDS_P2;PMS_P1;PMS_P2;Temp;Humidity;BMP_temperature;BMP_pressure;BME280_temperature;BME280_humidity;BME280_pressure;Samples;Min_cycle;Max_cycle;Signal;HPM_P1;HPM_P2
2022/10/30 00:01:03;;;;;;;3.38;1.10;;;25.20;53.20;;;;;;5070699;28;20037;-45
2022/10/30 00:03:30;;;;;;;7.28;1.20;;;25.20;53.20;;;;;;5071075;28;20067;-47
2022/10/30 00:05:57;;;;;;;4.25;0.32;;;25.20;53.20;;;;;;5070577;28;20087;-46
2022/10/30 00:08:25;;;;;;;2.17;0.55;;;25.20;53.10;;;;;;5070691;28;20591;-45
2022/10/30 00:10:53;;;;;;;2.97;0.63;;;25.20;53.10;;;;;;5070993;28;20045;-47
2022/10/30 00:13:21;;;;;;;5.28;0.75;;;25.20;53.00;;;;;;5070949;28;20051;-46
2022/10/30 00:15:49;;;;;;;2.22;0.32;;;25.20;53.00;;;;;;5070586;28;20052;-46
2022/10/30 00:18:16;;;;;;;4.13;1.50;;;25.20;53.00;;;;;;5070575;28;20044;-46
2022/10/30 00:20:43;;;;;;;3.60;0.40;;;25.20;53.10;;;;;;5070772;28;20052;-46
2022/10/30 00:23:10;;;;;;;2.55;0.57;;;25.20;53.00;;;;;;5070416;28;20032;-48
2022/10/30 00:25:38;;;;;;;3.50;0.38;;;25.20;53.00;;;;;;5070546;28;20052;-46
2022/10/30 00:28:07;;;;;;;2.25;1.25;;;25.20;53.00;;;;;;5070283;28;20044;-46
2022/10/30 00:30:35;;;;;;;3.55;0.70;;;25.20;52.90;;;;;;5032256;28;20045;-47
2022/10/30 00:33:02;;;;;;;0.98;0.30;;;25.20;53.00;;;;;;5052094;28;20045;-45
2022/10/30 00:35:29;;;;;;;5.68;0.40;;;25.20;52.90;;;;;;5070245;28;20242;-46
2022/10/30 00:37:56;;;;;;;5.85;0.52;;;25.20;52.90;;;;;;5068332;28;20063;-46
2022/10/30 00:40:23;;;;;;;3.10;0.60;;;25.20;52.90;;;;;;5068895;28;20133;-45
2022/10/30 00:42:50;;;;;;;6.80;0.50;;;25.20;52.90;;;;;;5070254;28;20041;-46
2022/10/30 00:45:19;;;;;;;4.97;1.27;;;25.20;52.90;;;;;;5068340;28;20137;-45
2022/10/30 00:47:53;;;;;;;3.58;0.65;;;25.20;52.90;;;;;;5070102;28;20037;-46
2022/10/30 00:50:25;;;;;;;8.48;0.75;;;25.20;52.90;;;;;;5070055;28;20131;-46
2022/10/30 00:52:56;;;;;;;3.42;0.73;;;25.20;52.90;;;;;;5085335;28;20090;-45
2022/10/30 00:55:29;;;;;;;1.25;0.40;;;25.10;52.80;;;;;;5069950;28;20071;-46
2022/10/30 00:57:57;;;;;;;2.85;0.50;;;25.20;52.90;;;;;;5068353;28;20607;-48
2022/10/30 01:00:28;;;;;;;3.65;0.50;;;25.10;52.70;;;;;;5069715;28;20048;-47
2022/10/30 01:02:56;;;;;;;2.13;0.75;;;25.20;52.70;;;;;;5069666;28;20090;-45
2022/10/30 01:05:27;;;;;;;0.95;0.70;;;25.10;52.70;;;;;;5067491;28;20032;-47
2022/10/30 01:07:54;;;;;;;2.97;0.60;;;25.10;52.70;;;;;;5068045;28;20080;-45
2022/10/30 01:10:22;;;;;;;0.93;0.32;;;25.10;52.60;;;;;;5051684;28;20044;-45
2022/10/30 01:12:51;;;;;;;3.47;0.52;;;25.10;52.60;;;;;;5069741;28;20119;-45
2022/10/30 01:15:23;;;;;;;1.15;0.40;;;25.10;52.60;;;;;;5067879;28;20048;-47
2022/10/30 01:18:09;;;;;;;5.60;1.38;;;25.10;52.60;;;;;;5059216;28;20041;-48
2022/10/30 01:20:58;;;;;;;3.03;0.65;;;25.10;52.50;;;;;;5049551;28;20512;-45
2022/10/30 01:23:35;;;;;;;4.60;1.08;;;25.10;52.50;;;;;;5081027;28;20044;-46
2022/10/30 01:26:12;;;;;;;1.90;0.40;;;25.10;52.50;;;;;;5088110;28;20527;-46
2022/10/30 01:29:01;;;;;;;2.20;0.55;;;25.10;52.50;;;;;;5089296;28;20580;-47
2022/10/30 01:31:40;;;;;;;2.22;0.70;;;25.00;52.40;;;;;;5089546;28;20130;-46
2022/10/30 01:34:18;;;;;;;3.33;0.73;;;25.00;52.60;;;;;;5076882;28;20127;-46
2022/10/30 01:36:50;;;;;;;0.93;0.20;;;25.00;52.50;;;;;;5067350;28;20056;-45
2022/10/30 01:39:22;;;;;;;5.95;1.23;;;25.00;52.60;;;;;;5067307;28;20040;-49
2022/10/30 01:41:49;;;;;;;2.13;0.45;;;25.00;52.60;;;;;;5067722;28;20036;-45
2022/10/30 01:44:20;;;;;;;1.52;0.52;;;25.00;52.70;;;;;;5067632;28;20086;-47
2022/10/30 01:47:10;;;;;;;1.45;1.15;;;25.00;52.60;;;;;;5068647;28;20040;-49
2022/10/30 01:50:05;;;;;;;2.45;0.60;;;25.00;52.60;;;;;;5067407;28;20067;-46
2022/10/30 01:52:41;;;;;;;2.95;0.60;;;25.00;52.70;;;;;;5067247;28;20044;-49
2022/10/30 01:55:18;;;;;;;3.88;0.60;;;25.00;52.70;;;;;;5068303;28;20715;-46
2022/10/30 01:57:54;;;;;;;1.75;0.65;;;25.00;52.70;;;;;;5050437;28;20070;-45
2022/10/30 02:00:21;;;;;;;3.77;0.77;;;24.90;52.60;;;;;;5067101;28;20107;-44
2022/10/30 02:02:50;;;;;;;3.22;0.65;;;24.90;52.60;;;;;;5066938;28;20041;-47
2022/10/30 02:05:27;;;;;;;1.50;1.38;;;24.90;52.60;;;;;;5047770;28;20140;-47
2022/10/30 02:07:55;;;;;;;1.67;0.60;;;24.90;52.60;;;;;;5066993;28;20041;-46
2022/10/30 02:10:24;;;;;;;2.63;0.70;;;24.90;52.60;;;;;;5067062;28;20115;-46
2022/10/30 02:12:51;;;;;;;0.93;0.40;;;24.90;52.60;;;;;;5066567;28;20044;-45
2022/10/30 02:15:18;;;;;;;3.42;0.43;;;24.90;52.50;;;;;;5065925;28;20049;-45
2022/10/30 02:17:47;;;;;;;3.88;0.50;;;24.90;52.50;;;;;;5050215;28;20052;-48
2022/10/30 02:20:18;;;;;;;4.35;2.08;;;24.90;52.50;;;;;;5050334;28;20041;-45
2022/10/30 02:22:45;;;;;;;3.75;0.50;;;24.90;52.40;;;;;;5068068;28;20151;-46
2022/10/30 02:25:12;;;;;;;3.05;0.75;;;24.90;52.50;;;;;;5066790;28;20040;-45
2022/10/30 02:27:39;;;;;;;2.90;0.40;;;24.90;52.50;;;;;;5066221;28;20060;-45
2022/10/30 02:30:11;;;;;;;2.92;0.30;;;24.90;52.50;;;;;;5066669;28;20062;-45
2022/10/30 02:32:38;;;;;;;4.68;0.95;;;24.90;52.50;;;;;;5066681;28;20136;-45
2022/10/30 02:35:07;;;;;;;2.28;1.23;;;24.90;52.50;;;;;;5066091;28;20043;-45
2022/10/30 02:37:35;;;;;;;5.45;0.93;;;24.90;52.60;;;;;;5066426;28;20950;-46
2022/10/30 02:40:02;;;;;;;4.43;0.80;;;24.90;52.60;;;;;;5066158;28;20115;-47
2022/10/30 02:42:29;;;;;;;5.30;0.65;;;24.80;52.50;;;;;;5066491;28;20498;-46
2022/10/30 02:44:57;;;;;;;2.53;0.43;;;24.90;52.60;;;;;;5066511;28;20094;-46
2022/10/30 02:47:24;;;;;;;4.10;0.75;;;24.80;52.50;;;;;;5067784;28;20927;-53
2022/10/30 02:49:51;;;;;;;1.35;0.30;;;24.80;52.50;;;;;;5066404;28;20516;-46
2022/10/30 02:52:18;;;;;;;2.88;0.55;;;24.80;52.60;;;;;;5066133;28;20596;-48
2022/10/30 02:54:46;;;;;;;3.70;0.60;;;24.80;52.50;;;;;;5037535;28;20041;-47
2022/10/30 02:57:14;;;;;;;3.85;0.77;;;24.80;52.50;;;;;;5046055;28;20448;-46
2022/10/30 02:59:41;;;;;;;3.22;0.73;;;24.80;52.40;;;;;;5047600;28;20071;-48
2022/10/30 03:02:08;;;;;;;3.88;0.30;;;24.80;52.40;;;;;;5047564;28;20040;-46
2022/10/30 03:04:34;;;;;;;1.38;0.75;;;24.80;52.40;;;;;;5062672;28;20416;-46
2022/10/30 03:07:02;;;;;;;6.55;1.70;;;24.80;52.40;;;;;;5066082;28;20056;-45
2022/10/30 03:09:29;;;;;;;2.05;0.40;;;24.80;52.40;;;;;;5065907;28;20087;-45
2022/10/30 03:11:57;;;;;;;3.03;0.60;;;24.80;52.50;;;;;;5067402;28;20068;-45
2022/10/30 03:14:24;;;;;;;7.70;1.98;;;24.80;52.50;;;;;;5067588;28;20139;-45
2022/10/30 03:16:52;;;;;;;1.33;0.30;;;24.80;52.50;;;;;;5066013;28;20048;-47
2022/10/30 03:19:19;;;;;;;3.70;0.70;;;24.80;52.60;;;;;;5067530;28;20118;-47
2022/10/30 03:21:46;;;;;;;2.15;0.55;;;24.80;52.50;;;;;;5067445;28;20411;-45
2022/10/30 03:24:14;;;;;;;4.28;0.63;;;24.80;52.60;;;;;;5071394;28;20072;-45
2022/10/30 03:26:41;;;;;;;2.38;0.45;;;24.70;52.50;;;;;;5088143;28;20048;-48
2022/10/30 03:29:10;;;;;;;2.03;0.90;;;24.70;52.50;;;;;;5091579;28;20051;-46
2022/10/30 03:31:37;;;;;;;2.40;1.20;;;24.80;52.70;;;;;;5091722;28;20046;-45
2022/10/30 03:34:24;;;;;;;2.10;0.52;;;24.80;52.70;;;;;;5076801;28;20032;-44
2022/10/30 03:36:51;;;;;;;0.90;0.35;;;24.70;52.60;;;;;;5069579;28;20060;-45
2022/10/30 03:39:18;;;;;;;2.25;1.20;;;24.70;52.60;;;;;;5070824;28;20048;-45
2022/10/30 03:41:46;;;;;;;3.13;0.50;;;24.70;52.60;;;;;;5069581;28;20056;-45
2022/10/30 03:44:14;;;;;;;3.67;0.55;;;24.70;52.60;;;;;;5071157;28;20047;-45
2022/10/30 03:46:41;;;;;;;7.20;2.00;;;24.70;52.60;;;;;;5069582;28;20052;-45
2022/10/30 03:49:19;;;;;;;7.20;1.48;;;24.70;52.60;;;;;;5069442;28;20037;-47
2022/10/30 03:51:46;;;;;;;1.75;0.52;;;24.70;52.60;;;;;;5049599;28;20057;-45
2022/10/30 03:54:13;;;;;;;4.97;0.30;;;24.70;52.50;;;;;;5050677;28;20037;-45
2022/10/30 03:56:40;;;;;;;3.63;0.52;;;24.70;52.50;;;;;;5049525;28;20140;-46
2022/10/30 03:59:09;;;;;;;2.75;1.27;;;24.60;52.30;;;;;;5065888;28;20048;-46
2022/10/30 04:01:40;;;;;;;6.35;0.40;;;24.70;52.70;;;;;;5049217;28;20076;-47
2022/10/30 04:04:07;;;;;;;5.00;0.95;;;24.70;52.40;;;;;;5059952;28;20037;-45
2022/10/30 04:06:34;;;;;;;3.90;1.17;;;24.70;52.40;;;;;;5069106;28;20102;-45
2022/10/30 04:09:02;;;;;;;1.23;0.40;;;24.70;52.40;;;;;;5069248;28;20051;-46
2022/10/30 04:11:35;;;;;;;8.80;0.45;;;24.70;52.40;;;;;;5052704;28;20059;-45
2022/10/30 04:14:02;;;;;;;6.75;1.73;;;24.70;52.30;;;;;;5070525;28;20087;-46
2022/10/30 04:16:29;;;;;;;2.60;0.40;;;24.70;52.30;;;;;;5068818;28;20436;-49
2022/10/30 04:18:59;;;;;;;1.08;0.22;;;24.60;52.30;;;;;;5068902;28;20556;-46
2022/10/30 04:21:27;;;;;;;3.40;0.65;;;24.70;52.30;;;;;;5068647;28;20094;-45
2022/10/30 04:23:55;;;;;;;3.78;0.77;;;24.60;52.20;;;;;;5070449;28;20163;-49
2022/10/30 04:26:26;;;;;;;1.25;1.05;;;24.60;52.20;;;;;;5068899;28;20048;-46
2022/10/30 04:28:52;;;;;;;1.95;1.08;;;24.70;52.30;;;;;;5068811;28;20076;-44
2022/10/30 04:31:20;;;;;;;0.93;0.68;;;24.60;52.30;;;;;;5063398;28;20115;-45
2022/10/30 04:33:47;;;;;;;3.22;0.75;;;24.60;52.30;;;;;;5057846;28;20128;-45
2022/10/30 04:36:16;;;;;;;3.03;0.63;;;24.60;52.30;;;;;;5068276;28;20068;-47
2022/10/30 04:38:45;;;;;;;3.35;0.60;;;24.60;52.30;;;;;;5067653;28;20049;-44
2022/10/30 04:41:13;;;;;;;2.10;0.35;;;24.60;52.40;;;;;;5068808;28;20124;-45
2022/10/30 04:43:54;;;;;;;1.20;0.40;;;24.60;52.40;;;;;;5068774;28;20055;-45
2022/10/30 04:46:21;;;;;;;2.08;1.20;;;24.60;52.40;;;;;;5068643;28;20156;-44
2022/10/30 04:48:48;;;;;;;2.90;1.10;;;24.60;52.40;;;;;;5069889;28;20033;-47
2022/10/30 04:51:16;;;;;;;4.28;0.77;;;24.60;52.40;;;;;;5068073;28;20044;-44
2022/10/30 04:53:44;;;;;;;3.63;1.13;;;24.60;52.40;;;;;;5068241;28;20040;-45
2022/10/30 04:56:15;;;;;;;3.53;0.85;;;24.60;52.30;;;;;;5068157;28;20044;-45
2022/10/30 04:58:42;;;;;;;5.07;0.50;;;24.60;52.30;;;;;;5069647;28;20879;-48
2022/10/30 05:01:09;;;;;;;4.30;1.00;;;24.60;52.40;;;;;;5068245;28;20047;-47
2022/10/30 05:03:37;;;;;;;4.40;0.70;;;24.50;52.40;;;;;;5068099;28;20102;-45
2022/10/30 05:06:19;;;;;;;9.70;1.17;;;24.60;52.50;;;;;;5067761;28;20053;-44
2022/10/30 05:08:47;;;;;;;2.05;0.68;;;24.60;52.60;;;;;;5064592;28;20147;-46
2022/10/30 05:11:25;;;;;;;3.47;0.80;;;24.50;52.50;;;;;;5051481;28;20513;-46
2022/10/30 05:13:52;;;;;;;3.33;1.05;;;24.50;52.40;;;;;;5044177;28;20045;-46
2022/10/30 05:16:19;;;;;;;6.13;1.67;;;24.50;52.30;;;;;;5067490;28;20109;-47
2022/10/30 05:18:46;;;;;;;3.35;1.70;;;24.50;52.30;;;;;;5065355;28;20125;-46
2022/10/30 05:21:13;;;;;;;3.33;1.02;;;24.50;52.30;;;;;;5053537;28;20536;-47
2022/10/30 05:23:42;;;;;;;2.10;0.63;;;24.50;52.30;;;;;;5069303;28;20079;-47
2022/10/30 05:26:10;;;;;;;5.18;1.05;;;24.50;52.30;;;;;;5063283;28;20044;-46
2022/10/30 05:28:38;;;;;;;4.93;1.15;;;24.50;52.30;;;;;;5055927;28;20036;-46
2022/10/30 05:31:05;;;;;;;3.28;0.77;;;24.50;52.30;;;;;;5067473;28;20041;-46
2022/10/30 05:33:59;;;;;;;2.45;0.47;;;24.50;52.40;;;;;;5045363;28;20055;-46
2022/10/30 05:36:27;;;;;;;3.42;1.05;;;24.40;52.50;;;;;;5044992;28;20168;-61
2022/10/30 05:38:56;;;;;;;4.22;1.00;;;24.40;52.70;;;;;;5028710;28;20052;-61
2022/10/30 05:41:33;;;;;;;7.45;1.20;;;24.40;53.00;;;;;;5045853;28;20080;-61
2022/10/30 05:44:00;;;;;;;4.28;1.25;;;24.40;53.20;;;;;;5019402;28;20072;-62
2022/10/30 05:46:27;;;;;;;4.03;0.98;;;24.40;53.30;;;;;;5045835;28;20049;-61
2022/10/30 05:48:59;;;;;;;4.93;0.75;;;24.30;53.30;;;;;;5032291;28;20049;-64
2022/10/30 05:51:28;;;;;;;1.52;0.50;;;24.30;53.30;;;;;;5025525;28;20111;-49
2022/10/30 05:53:59;;;;;;;2.13;1.08;;;24.30;53.30;;;;;;5028898;28;20052;-54
2022/10/30 05:56:28;;;;;;;7.05;1.02;;;24.30;53.20;;;;;;5043471;28;20059;-53
2022/10/30 05:58:58;;;;;;;2.50;1.05;;;24.30;53.20;;;;;;5045246;28;20106;-51
2022/10/30 06:01:25;;;;;;;4.72;1.17;;;24.30;53.20;;;;;;5045738;28;20060;-50
2022/10/30 06:03:57;;;;;;;4.60;1.35;;;24.30;53.20;;;;;;5028143;28;20059;-54
2022/10/30 06:06:25;;;;;;;4.93;1.58;;;24.30;53.20;;;;;;5044563;28;20049;-52
2022/10/30 06:08:52;;;;;;;2.72;0.50;;;24.30;53.20;;;;;;5024968;28;20057;-49
2022/10/30 06:11:47;;;;;;;4.55;0.70;;;24.30;53.20;;;;;;5045268;28;20482;-51
2022/10/30 06:14:15;;;;;;;3.60;1.40;;;24.30;53.40;;;;;;5066363;28;20071;-51
2022/10/30 06:16:50;;;;;;;;;;;24.30;53.50;;;;;;5066845;28;20040;-54
2022/10/30 06:19:26;;;;;;;5.65;0.73;;;24.20;53.40;;;;;;5056506;28;19924;-50
2022/10/30 06:22:00;;;;;;;5.32;1.60;;;24.20;53.50;;;;;;5067265;28;20041;-49
2022/10/30 06:24:47;;;;;;;14.68;1.80;;;24.20;53.40;;;;;;5068494;28;20052;-50
2022/10/30 06:27:44;;;;;;;11.73;2.45;;;24.20;53.30;;;;;;5045586;28;20083;-49
2022/10/30 06:30:13;;;;;;;12.10;1.58;;;24.30;55.70;;;;;;5045099;28;20048;-53
2022/10/30 06:32:40;;;;;;;6.70;2.45;;;24.20;56.30;;;;;;5027820;28;20044;-52
2022/10/30 06:35:08;;;;;;;7.85;1.25;;;24.30;56.50;;;;;;5028357;28;20151;-51
2022/10/30 06:37:35;;;;;;;4.35;1.55;;;24.30;57.20;;;;;;5044818;28;20555;-51
2022/10/30 06:40:09;;;;;;;9.95;1.50;;;24.30;57.30;;;;;;5028057;28;20045;-53
2022/10/30 06:43:02;;;;;;;11.38;2.03;;;24.30;57.70;;;;;;5028490;28;20800;-52
2022/10/30 06:45:36;;;;;;;14.07;1.52;;;24.40;58.10;;;;;;5028271;28;20089;-53
2022/10/30 06:48:03;;;;;;;5.75;0.93;;;24.30;57.30;;;;;;5028104;28;20179;-49
2022/10/30 06:50:36;;;;;;;8.45;1.65;;;24.30;57.20;;;;;;5028257;28;20055;-52
2022/10/30 06:53:03;;;;;;;8.77;1.40;;;24.30;57.10;;;;;;5028514;28;20563;-52
2022/10/30 06:55:30;;;;;;;10.45;1.92;;;24.30;56.90;;;;;;5045086;28;20041;-51
2022/10/30 06:58:24;;;;;;;3.92;1.95;;;24.30;57.00;;;;;;5028165;28;20073;-54
2022/10/30 07:01:08;;;;;;;9.40;1.58;;;24.30;56.80;;;;;;5027859;28;20065;-53
2022/10/30 07:03:54;;;;;;;4.32;1.05;;;24.30;56.80;;;;;;5052747;28;20048;-51
2022/10/30 07:06:21;;;;;;;5.68;0.82;;;24.30;56.80;;;;;;5067687;28;20053;-53
2022/10/30 07:08:48;;;;;;;4.68;1.58;;;24.30;56.70;;;;;;5066391;28;20523;-53
2022/10/30 07:11:15;;;;;;;7.95;1.77;;;24.20;56.60;;;;;;5066170;28;20135;-53
2022/10/30 07:13:55;;;;;;;11.63;3.90;;;24.30;56.50;;;;;;5066339;28;20063;-50
2022/10/30 07:16:44;;;;;;;7.18;2.78;;;24.30;56.40;;;;;;5071369;28;20046;-53
2022/10/30 07:19:12;;;;;;;6.47;1.63;;;24.20;56.20;;;;;;5086199;28;20123;-52
2022/10/30 07:21:39;;;;;;;5.57;1.80;;;24.20;56.20;;;;;;5039352;28;20510;-54
2022/10/30 07:24:07;;;;;;;8.07;2.15;;;24.20;56.10;;;;;;5065915;28;20060;-52
2022/10/30 07:26:41;;;;;;;9.90;2.55;;;24.30;56.00;;;;;;5066128;28;20535;-51
2022/10/30 07:29:31;;;;;;;4.93;0.77;;;24.20;55.90;;;;;;5065747;28;20037;-52
2022/10/30 07:32:17;;;;;;;6.93;1.73;;;24.20;55.90;;;;;;5066943;28;20036;-54
2022/10/30 07:35:05;;;;;;;6.28;2.00;;;24.20;55.80;;;;;;5067255;28;20552;-53
2022/10/30 07:37:55;;;;;;;1.50;0.98;;;24.20;55.70;;;;;;5060966;28;20057;-53
2022/10/30 07:40:34;;;;;;;4.65;2.00;;;24.20;55.60;;;;;;5067377;28;20048;-53
2022/10/30 07:43:28;;;;;;;4.32;1.98;;;24.10;55.50;;;;;;5065829;28;20072;-53
2022/10/30 07:46:22;;;;;;;6.05;2.65;;;24.20;55.60;;;;;;5057174;28;20045;-52
2022/10/30 07:49:07;;;;;;;6.38;2.55;;;24.20;55.60;;;;;;5065631;28;20132;-49
2022/10/30 07:51:53;;;;;;;4.50;1.83;;;24.20;56.20;;;;;;5067233;28;20044;-52
2022/10/30 07:54:21;;;;;;;6.97;1.27;;;24.20;55.60;;;;;;5066030;28;20121;-50
2022/10/30 07:56:48;;;;;;;6.18;1.27;;;24.20;55.60;;;;;;5065809;28;20072;-51
2022/10/30 07:59:53;;;;;;;1.70;1.02;;;24.20;55.40;;;;;;5043716;28;20056;-52
2022/10/30 08:02:40;;;;;;;1.90;1.05;;;24.20;55.40;;;;;;5044172;28;20077;-50
2022/10/30 08:05:28;;;;;;;3.60;1.25;;;24.20;55.30;;;;;;5024128;28;20053;-50
2022/10/30 08:08:08;;;;;;;6.90;1.15;;;24.20;55.30;;;;;;5007921;28;20104;-50
2022/10/30 08:10:36;;;;;;;4.07;1.35;;;24.20;55.40;;;;;;5020647;28;20045;-50
2022/10/30 08:13:04;;;;;;;2.95;1.02;;;24.30;55.30;;;;;;5007933;28;20067;-52
2022/10/30 08:15:32;;;;;;;2.30;1.50;;;24.30;55.30;;;;;;5027196;28;20084;-53
2022/10/30 08:18:01;;;;;;;4.65;2.50;;;24.30;55.10;;;;;;5027202;28;20841;-53
2022/10/30 08:20:28;;;;;;;6.28;1.25;;;24.30;55.10;;;;;;5011207;28;20099;-50
2022/10/30 08:22:57;;;;;;;4.57;0.63;;;24.30;55.10;;;;;;5027795;28;20053;-51
2022/10/30 08:25:27;;;;;;;2.22;0.77;;;24.30;55.00;;;;;;5027690;28;20053;-52
2022/10/30 08:27:56;;;;;;;7.75;1.33;;;24.30;54.90;;;;;;5011054;28;20041;-52
2022/10/30 08:30:26;;;;;;;6.60;1.85;;;24.30;54.90;;;;;;5025366;28;20040;-51
2022/10/30 08:32:58;;;;;;;3.70;1.48;;;24.30;54.80;;;;;;5068639;28;20055;-51
2022/10/30 08:35:53;;;;;;;5.15;0.85;;;24.30;54.70;;;;;;5056105;28;20442;-53
2022/10/30 08:38:20;;;;;;;5.22;1.30;;;24.30;54.70;;;;;;5068178;28;20055;-51
2022/10/30 08:40:56;;;;;;;3.38;1.63;;;24.30;54.60;;;;;;5068781;28;20127;-50
2022/10/30 08:43:24;;;;;;;5.78;0.95;;;24.30;54.50;;;;;;5068341;28;20046;-52
2022/10/30 08:45:51;;;;;;;2.92;0.70;;;24.30;54.50;;;;;;5068645;28;20063;-50
2022/10/30 08:48:21;;;;;;;2.75;0.70;;;24.30;54.40;;;;;;5068521;28;20114;-53
2022/10/30 08:50:47;;;;;;;3.80;0.88;;;24.30;54.20;;;;;;5069781;28;20045;-50
2022/10/30 08:53:22;;;;;;;4.18;1.17;;;24.40;54.40;;;;;;5068000;28;20496;-56
2022/10/30 08:55:51;;;;;;;4.35;0.73;;;24.40;54.30;;;;;;5068586;28;20048;-49
2022/10/30 08:58:36;;;;;;;2.05;0.80;;;24.40;54.30;;;;;;5067609;28;20057;-52
2022/10/30 09:01:03;;;;;;;3.17;0.90;;;24.40;54.40;;;;;;5067864;28;20041;-52
2022/10/30 09:03:49;;;;;;;3.17;1.10;;;24.40;54.30;;;;;;5069495;28;20115;-52
2022/10/30 09:06:54;;;;;;;3.60;0.90;;;24.40;54.20;;;;;;5046785;28;20045;-50
2022/10/30 09:09:42;;;;;;;6.80;2.58;;;24.40;54.20;;;;;;5046814;28;20127;-49
2022/10/30 09:12:09;;;;;;;3.55;0.60;;;24.40;54.00;;;;;;5046447;28;20088;-50
2022/10/30 09:14:41;;;;;;;6.28;1.15;;;24.50;54.00;;;;;;5046776;28;20525;-52
2022/10/30 09:17:09;;;;;;;2.20;1.40;;;24.50;53.80;;;;;;5046602;28;20159;-52
2022/10/30 09:19:38;;;;;;;2.22;1.00;;;24.50;53.70;;;;;;5042846;28;20045;-50
2022/10/30 09:22:05;;;;;;;4.93;1.65;;;24.60;53.50;;;;;;5010170;28;20045;-49
2022/10/30 09:24:38;;;;;;;2.78;1.00;;;24.50;53.30;;;;;;5025464;28;20050;-49
2022/10/30 09:27:39;;;;;;;5.88;0.95;;;24.60;53.20;;;;;;5026311;28;20058;-52
2022/10/30 09:30:09;;;;;;;5.97;1.65;;;24.60;53.10;;;;;;5026175;28;20115;-50
2022/10/30 09:32:42;;;;;;;3.92;1.40;;;24.60;53.00;;;;;;5026508;28;20049;-50
2022/10/30 09:35:11;;;;;;;2.00;0.75;;;24.60;52.90;;;;;;5045539;28;20054;-53
2022/10/30 09:37:40;;;;;;;6.40;1.85;;;24.60;52.90;;;;;;5055906;28;20069;-52
2022/10/30 09:40:21;;;;;;;2.30;1.08;;;24.60;52.70;;;;;;5051006;28;20386;-52
2022/10/30 09:42:51;;;;;;;6.65;0.85;;;24.70;52.60;;;;;;5067528;28;20520;-51
2022/10/30 09:45:59;;;;;;;8.73;1.23;;;24.70;52.50;;;;;;5066970;28;20119;-53
2022/10/30 09:48:54;;;;;;;2.42;0.93;;;24.70;52.60;;;;;;5053459;28;20070;-50
2022/10/30 09:51:55;;;;;;;8.50;1.45;;;24.70;52.50;;;;;;5067292;28;20043;-50
2022/10/30 09:54:37;;;;;;;3.72;0.60;;;24.80;52.40;;;;;;5066863;28;20040;-50
2022/10/30 09:57:12;;;;;;;4.57;0.50;;;24.80;52.30;;;;;;5066759;28;20040;-50
2022/10/30 09:59:52;;;;;;;3.17;0.85;;;24.80;52.20;;;;;;5067128;28;20048;-54
2022/10/30 10:02:33;;;;;;;4.18;1.75;;;24.90;52.10;;;;;;5067033;28;20512;-53
2022/10/30 10:05:11;;;;;;;3.20;0.63;;;24.90;51.90;;;;;;5066949;28;20040;-50
2022/10/30 10:08:06;;;;;;;3.13;0.65;;;24.90;52.50;;;;;;5025576;28;20065;-53
2022/10/30 10:10:55;;;;;;;2.42;0.40;;;24.90;51.80;;;;;;5025288;28;20045;-52
2022/10/30 10:13:30;;;;;;;5.18;1.65;;;24.90;51.80;;;;;;5009107;28;20109;-52
2022/10/30 10:16:02;;;;;;;1.67;1.02;;;25.00;51.50;;;;;;5025589;28;20057;-49
2022/10/30 10:18:35;;;;;;;3.58;1.60;;;25.00;51.40;;;;;;5025401;28;20041;-51
2022/10/30 10:21:09;;;;;;;3.10;0.75;;;25.00;51.10;;;;;;5025246;28;20084;-50
2022/10/30 10:23:46;;;;;;;5.53;0.75;;;25.10;51.10;;;;;;5025556;28;20057;-53
2022/10/30 10:26:26;;;;;;;4.25;0.90;;;25.10;50.90;;;;;;5025025;28;20051;-50
2022/10/30 10:29:23;;;;;;;4.95;0.73;;;25.10;50.80;;;;;;5025538;28;20513;-50
2022/10/30 10:31:56;;;;;;;;;;;25.20;50.70;;;;;;5011253;28;20045;-54
2022/10/30 10:34:57;;;;;;;4.18;0.68;;;25.10;51.10;;;;;;5025332;28;19924;-51
2022/10/30 10:37:34;;;;;;;7.43;0.85;;;25.20;50.60;;;;;;5012153;28;20156;-51
2022/10/30 10:40:18;;;;;;;3.95;1.02;;;25.20;50.30;;;;;;5024899;28;20540;-49
2022/10/30 10:42:57;;;;;;;1.88;0.52;;;25.20;50.00;;;;;;5025261;28;20055;-51
2022/10/30 10:45:32;;;;;;;6.95;0.60;;;25.20;49.80;;;;;;5049708;28;20045;-51
2022/10/30 10:48:26;;;;;;;1.88;0.75;;;25.20;49.60;;;;;;5066468;28;20044;-53
2022/10/30 10:50:58;;;;;;;4.25;0.52;;;25.20;49.60;;;;;;5067822;28;20063;-53
2022/10/30 10:53:30;;;;;;;4.30;0.50;;;25.20;49.70;;;;;;5067559;28;20040;-52
2022/10/30 10:56:00;;;;;;;4.38;0.90;;;25.20;49.30;;;;;;5067904;28;20663;-53
2022/10/30 10:58:31;;;;;;;9.32;0.82;;;25.20;49.10;;;;;;5067809;28;20127;-53
2022/10/30 11:00:59;;;;;;;4.32;1.63;;;25.30;49.00;;;;;;5055499;28;20460;-50
2022/10/30 11:03:41;;;;;;;7.03;2.10;;;25.30;48.90;;;;;;5066468;28;20051;-54
2022/10/30 11:06:19;;;;;;;7.60;0.70;;;25.30;49.00;;;;;;5067558;28;20630;-52
2022/10/30 11:08:47;;;;;;;0.73;0.28;;;25.30;49.30;;;;;;5067418;28;20538;-54
2022/10/30 11:11:14;;;;;;;2.58;0.52;;;25.40;49.60;;;;;;5067842;28;20044;-51
2022/10/30 11:13:44;;;;;;;3.05;0.32;;;25.40;49.70;;;;;;5067760;28;20045;-55
2022/10/30 11:16:21;;;;;;;3.40;0.73;;;25.50;49.80;;;;;;5067848;28;20051;-54
2022/10/30 11:18:54;;;;;;;1.00;0.57;;;25.60;49.80;;;;;;5067714;28;20049;-53
2022/10/30 11:21:23;;;;;;;4.97;0.52;;;25.70;49.80;;;;;;5067654;28;20111;-54
2022/10/30 11:23:50;;;;;;;2.95;0.32;;;25.70;49.80;;;;;;5067281;28;20045;-53
2022/10/30 11:26:28;;;;;;;5.85;0.40;;;25.80;49.80;;;;;;5071337;28;20070;-54
2022/10/30 11:28:58;;;;;;;0.40;0.20;;;25.90;49.80;;;;;;5067667;28;20071;-53
2022/10/30 11:31:33;;;;;;;4.13;1.20;;;25.90;49.80;;;;;;5067648;28;20120;-52
2022/10/30 11:34:30;;;;;;;2.40;0.45;;;26.00;49.80;;;;;;5067494;28;20048;-52
2022/10/30 11:36:57;;;;;;;3.55;0.40;;;26.00;49.70;;;;;;5067056;28;20110;-51
2022/10/30 11:39:26;;;;;;;0.85;0.73;;;26.10;49.80;;;;;;5067452;28;20040;-53
2022/10/30 11:42:01;;;;;;;0.68;0.35;;;26.20;49.70;;;;;;5067656;28;20044;-52
2022/10/30 11:44:33;;;;;;;4.78;0.52;;;26.20;49.70;;;;;;5067772;28;20040;-52
2022/10/30 11:47:00;;;;;;;0.52;0.25;;;26.30;49.60;;;;;;5067610;28;20131;-51
2022/10/30 11:49:39;;;;;;;1.35;1.05;;;26.30;49.60;;;;;;5057775;28;20460;-51
2022/10/30 11:52:07;;;;;;;2.72;0.30;;;26.40;49.50;;;;;;5062733;28;20045;-49
2022/10/30 11:54:38;;;;;;;3.70;0.63;;;26.40;49.50;;;;;;5071130;28;20068;-50
2022/10/30 11:57:16;;;;;;;1.48;0.40;;;26.40;49.40;;;;;;5071038;28;20586;-53
2022/10/30 11:59:46;;;;;;;3.90;1.25;;;26.50;49.40;;;;;;5071135;28;20045;-54
2022/10/30 12:02:21;;;;;;;2.67;0.68;;;26.50;49.30;;;;;;5071133;28;20050;-51
2022/10/30 12:04:50;;;;;;;;;;;26.50;49.20;;;;;;5071581;28;20131;-49
2022/10/30 12:07:26;;;;;;;1.77;0.30;;;26.50;49.40;;;;;;5070751;28;19971;-52
2022/10/30 12:09:53;;;;;;;4.55;0.52;;;26.50;49.30;;;;;;5070819;28;20463;-52
2022/10/30 12:12:24;;;;;;;2.83;0.40;;;26.50;49.20;;;;;;5070687;28;20500;-54
2022/10/30 12:14:52;;;;;;;2.88;0.30;;;26.50;49.10;;;;;;5069484;28;20040;-52
2022/10/30 12:17:20;;;;;;;1.38;1.20;;;26.50;49.00;;;;;;5071029;28;20094;-52
2022/10/30 12:19:51;;;;;;;4.13;0.40;;;26.50;48.90;;;;;;5084185;28;20163;-52
2022/10/30 12:22:27;;;;;;;6.90;1.25;;;26.50;48.60;;;;;;5091167;28;20139;-50
2022/10/30 12:24:54;;;;;;;5.65;1.13;;;26.50;47.90;;;;;;5090848;28;20047;-53
2022/10/30 12:27:21;;;;;;;7.32;1.25;;;26.50;47.90;;;;;;5090888;28;20065;-52
2022/10/30 12:30:01;;;;;;;2.20;0.95;;;26.50;48.00;;;;;;5090802;28;20062;-51
2022/10/30 12:32:36;;;;;;;1.75;0.40;;;26.60;48.30;;;;;;5070955;28;20037;-50
2022/10/30 12:35:14;;;;;;;2.55;0.75;;;26.50;48.30;;;;;;5070408;28;20052;-52
2022/10/30 12:37:43;;;;;;;5.90;0.55;;;26.60;48.30;;;;;;5069542;28;20052;-51
2022/10/30 12:40:16;;;;;;;0.43;0.28;;;26.60;47.40;;;;;;5070043;28;20041;-53
2022/10/30 12:42:52;;;;;;;0.93;0.35;;;26.60;46.90;;;;;;5069087;28;20048;-54
2022/10/30 12:45:23;;;;;;;7.38;1.05;;;26.60;46.60;;;;;;5070172;28;20102;-50
2022/10/30 12:47:57;;;;;;;4.30;1.08;;;26.50;46.50;;;;;;5070196;28;20138;-50
2022/10/30 12:50:29;;;;;;;8.35;0.85;;;26.50;46.40;;;;;;5069421;28;20186;-50
2022/10/30 12:53:02;;;;;;;8.98;1.08;;;26.50;46.50;;;;;;5048512;28;20049;-52
2022/10/30 12:55:35;;;;;;;4.22;0.43;;;26.40;47.00;;;;;;5050181;28;20095;-51
2022/10/30 12:58:18;;;;;;;1.77;0.73;;;26.40;46.40;;;;;;5050078;28;20460;-52
2022/10/30 13:00:52;;;;;;;3.00;0.40;;;26.40;46.40;;;;;;5055295;28;20040;-53
2022/10/30 13:03:26;;;;;;;3.63;0.88;;;26.30;46.30;;;;;;5056549;28;20813;-51
2022/10/30 13:05:59;;;;;;;2.80;0.50;;;26.30;46.30;;;;;;5068559;28;20040;-49
2022/10/30 13:08:32;;;;;;;0.55;0.10;;;26.30;46.40;;;;;;5069623;28;20048;-49
2022/10/30 13:11:07;;;;;;;1.35;0.43;;;26.30;46.30;;;;;;5069762;28;20116;-50
2022/10/30 13:13:38;;;;;;;1.75;0.20;;;26.30;46.30;;;;;;5070010;28;20090;-50
2022/10/30 13:16:12;;;;;;;2.33;0.70;;;26.20;46.30;;;;;;5069689;28;20040;-53
2022/10/30 13:18:39;;;;;;;6.78;0.82;;;26.20;46.40;;;;;;5069397;28;20048;-52